createdAt,value
2023-04-08T16:19:05.741Z,16.59
2023-04-08T16:19:16.633Z,16.55
2023-04-08T16:19:26.972Z,16.51
2023-04-08T16:19:36.863Z,16.42
2023-04-08T16:19:47.040Z,16.33
2023-04-08T16:19:57.367Z,16.27
2023-04-08T16:20:07.472Z,16.22
2023-04-08T16:20:20.020Z,16.17
2023-04-08T16:20:27.399Z,16.11
2023-04-08T16:20:37.916Z,16.08
2023-04-08T16:20:47.777Z,16.07
2023-04-08T16:20:57.706Z,16.04
2023-04-08T16:21:07.959Z,16.01
2023-04-08T16:21:18.021Z,15.99
2023-04-08T16:21:28.114Z,15.96
2023-04-08T16:21:38.203Z,15.95
2023-04-08T16:21:48.523Z,15.93
2023-04-08T16:21:58.649Z,15.92
2023-04-08T16:22:08.724Z,15.88
2023-04-08T16:22:18.893Z,15.86
2023-04-08T16:22:28.958Z,15.85
2023-04-08T16:22:39.271Z,15.84
2023-04-08T16:22:49.317Z,15.81
2023-04-08T16:22:59.390Z,15.80
2023-04-08T16:23:09.599Z,15.78
2023-04-08T16:23:19.588Z,15.77
2023-04-08T16:23:29.958Z,15.76
2023-04-08T16:23:40.063Z,15.74
2023-04-08T16:23:50.371Z,15.73
2023-04-08T16:24:00.238Z,15.71
2023-04-08T16:24:10.429Z,15.68
2023-04-08T16:24:20.570Z,15.68
2023-04-08T16:24:30.476Z,15.68
2023-04-08T16:24:40.729Z,15.67
2023-04-08T16:24:50.720Z,15.67
2023-04-08T16:25:00.965Z,15.62
2023-04-08T16:25:10.864Z,15.59
2023-04-08T16:25:21.048Z,15.55
2023-04-08T16:25:31.310Z,15.51
2023-04-08T16:25:41.797Z,15.46
2023-04-08T16:25:51.746Z,15.40
2023-04-08T16:26:01.675Z,15.34
2023-04-08T16:26:11.744Z,15.30
2023-04-08T16:26:21.911Z,15.30
2023-04-08T16:26:32.048Z,15.28
2023-04-08T16:26:42.111Z,15.25
2023-04-08T16:26:52.488Z,15.22
2023-04-08T16:27:02.415Z,15.20
2023-04-08T16:27:12.732Z,15.20
2023-04-08T16:27:22.811Z,15.18
2023-04-08T16:27:32.800Z,15.18
2023-04-08T16:27:42.885Z,15.18
2023-04-08T16:27:53.033Z,15.18
2023-04-08T16:28:03.144Z,15.18
2023-04-08T16:28:13.335Z,15.18
2023-04-08T16:28:23.480Z,15.20
2023-04-08T16:28:33.590Z,15.20
2023-04-08T16:28:43.744Z,15.19
2023-04-08T16:28:53.905Z,15.20
2023-04-08T16:29:04.062Z,15.20
2023-04-08T16:29:14.146Z,15.19
2023-04-08T16:29:24.308Z,15.19
2023-04-08T16:29:34.649Z,15.20
2023-04-08T16:29:44.513Z,15.20
2023-04-08T16:29:54.764Z,15.22
2023-04-08T16:30:04.742Z,15.20
2023-04-08T16:30:15.001Z,15.23
2023-04-08T16:30:24.923Z,15.22
2023-04-08T16:30:35.015Z,15.20
2023-04-08T16:30:45.164Z,15.18
2023-04-08T16:30:55.135Z,15.18
2023-04-08T16:31:06.335Z,15.15
2023-04-08T16:31:16.535Z,15.13
2023-04-08T16:31:25.665Z,15.11
2023-04-08T16:31:35.731Z,15.09
2023-04-08T16:31:45.915Z,15.09
2023-04-08T16:31:56.124Z,15.09
2023-04-08T16:32:16.497Z,15.07
2023-04-08T16:32:27.034Z,15.05
2023-04-08T16:32:36.517Z,15.09
2023-04-08T16:32:46.954Z,15.09
2023-04-08T16:32:56.789Z,15.11
2023-04-08T16:33:07.070Z,15.12
2023-04-08T16:33:17.046Z,15.12
2023-04-08T16:33:29.278Z,15.12
2023-04-08T16:33:37.251Z,15.12
2023-04-08T16:33:47.406Z,15.15
2023-04-08T16:33:57.574Z,15.15
2023-04-08T16:34:07.778Z,15.15
2023-04-08T16:34:17.770Z,15.16
2023-04-08T16:34:38.007Z,15.18
2023-04-08T16:34:48.210Z,15.18
2023-04-08T16:34:58.217Z,15.16
2023-04-08T16:35:08.377Z,15.16
2023-04-08T16:35:18.460Z,15.15
2023-04-08T16:35:28.578Z,15.16
2023-04-08T16:35:39.045Z,15.16
2023-04-08T16:35:48.901Z,15.18
2023-04-08T16:35:59.049Z,15.18
2023-04-08T16:36:09.159Z,15.18
2023-04-08T16:36:19.333Z,15.18
2023-04-08T16:36:29.481Z,15.19
2023-04-08T16:36:39.624Z,15.19
2023-04-08T16:36:49.596Z,15.19
2023-04-08T16:37:00.550Z,15.20
2023-04-08T16:37:09.925Z,15.20
2023-04-08T16:37:20.041Z,15.20
2023-04-08T16:37:30.115Z,15.19
2023-04-08T16:37:40.254Z,15.20
2023-04-08T16:37:50.479Z,15.20
2023-04-08T16:38:10.698Z,15.23
2023-04-08T16:38:20.886Z,15.27
2023-04-08T16:38:30.982Z,15.30
2023-04-08T16:38:41.729Z,15.31
2023-04-08T16:38:52.018Z,15.33
2023-04-08T16:39:01.361Z,15.33
2023-04-08T16:39:11.407Z,15.31
2023-04-08T16:39:21.962Z,15.31
2023-04-08T16:39:31.750Z,15.33
2023-04-08T16:39:41.852Z,15.33
2023-04-08T16:40:03.032Z,15.27
2023-04-08T16:40:12.094Z,15.25
2023-04-08T16:40:22.231Z,15.23
2023-04-08T16:40:32.350Z,15.23
2023-04-08T16:40:42.475Z,15.23
2023-04-08T16:40:52.727Z,15.25
2023-04-08T16:41:03.420Z,15.30
2023-04-08T16:41:12.893Z,15.35
2023-04-08T16:41:23.060Z,15.37
2023-04-08T16:41:34.006Z,15.37
2023-04-08T16:41:43.524Z,15.34
2023-04-08T16:41:53.905Z,15.35
2023-04-08T16:42:03.956Z,15.34
2023-04-08T16:42:14.511Z,15.33
2023-04-08T16:42:23.814Z,15.33
2023-04-08T16:42:45.015Z,15.30
2023-04-08T16:42:54.173Z,15.27
2023-04-08T16:43:04.570Z,15.25
2023-04-08T16:43:15.688Z,15.22
2023-04-08T16:43:24.459Z,15.22
2023-04-08T16:43:34.713Z,15.22
2023-04-08T16:43:54.953Z,15.20
2023-04-08T16:44:04.949Z,15.19
2023-04-08T16:44:15.723Z,15.20
2023-04-08T16:44:25.233Z,15.19
2023-04-08T16:44:35.352Z,15.18
2023-04-08T16:44:45.428Z,15.16
2023-04-08T16:44:55.543Z,15.13
2023-04-08T16:45:05.542Z,15.11
2023-04-08T16:45:15.719Z,15.09
2023-04-08T16:45:26.026Z,15.07
2023-04-08T16:45:36.030Z,15.04
2023-04-08T16:45:46.427Z,15.01
2023-04-08T16:45:56.983Z,14.98
2023-04-08T16:46:06.627Z,14.97
2023-04-08T16:46:16.502Z,14.95
2023-04-08T16:46:26.689Z,14.95
2023-04-08T16:46:36.749Z,14.95
2023-04-08T16:46:46.902Z,14.94
2023-04-08T16:46:57.809Z,14.94
2023-04-08T16:47:07.093Z,14.93
2023-04-08T16:47:17.234Z,14.90
2023-04-08T16:47:28.364Z,14.91
2023-04-08T16:47:37.564Z,14.90
2023-04-08T16:47:47.719Z,14.91
2023-04-08T16:48:07.940Z,14.95
2023-04-08T16:48:18.026Z,14.97
2023-04-08T16:48:28.207Z,15.01
2023-04-08T16:48:38.435Z,15.04
2023-04-08T16:48:48.412Z,15.04
2023-04-08T16:48:58.573Z,15.07
2023-04-08T16:49:08.679Z,15.09
2023-04-08T16:49:18.917Z,15.11
2023-04-08T16:49:28.950Z,15.12
2023-04-08T16:49:39.635Z,15.15
2023-04-08T16:49:49.255Z,15.13
2023-04-08T16:49:59.522Z,15.15
2023-04-08T16:50:09.569Z,15.15
2023-04-08T16:50:21.410Z,15.18
2023-04-08T16:50:29.854Z,15.18
2023-04-08T16:50:40.097Z,15.19
2023-04-08T16:50:49.999Z,15.19
2023-04-08T16:51:00.124Z,15.20
2023-04-08T16:51:10.467Z,15.20
2023-04-08T16:51:30.531Z,15.20
2023-04-08T16:51:40.611Z,15.22
2023-04-08T16:51:50.672Z,15.23
2023-04-08T16:52:00.833Z,15.22
2023-04-08T16:52:11.345Z,15.25
2023-04-08T16:52:21.043Z,15.27
2023-04-08T16:52:31.183Z,15.27
2023-04-08T16:52:42.786Z,15.28
2023-04-08T16:52:51.505Z,15.28
2023-04-08T16:53:01.530Z,15.30
2023-04-08T16:53:11.732Z,15.30
2023-04-08T16:53:21.944Z,15.31
2023-04-08T16:53:32.144Z,15.31
2023-04-08T16:53:53.796Z,15.31
2023-04-08T16:54:02.404Z,15.31
2023-04-08T16:54:12.600Z,15.33
2023-04-08T16:54:22.793Z,15.33
2023-04-08T16:54:32.975Z,15.35
2023-04-08T16:54:43.798Z,15.34
2023-04-08T16:54:53.186Z,15.33
2023-04-08T16:55:03.333Z,15.33
2023-04-08T16:55:14.930Z,15.31
2023-04-08T16:55:23.421Z,15.31
2023-04-08T16:55:33.669Z,15.31
2023-04-08T16:55:54.163Z,15.30
2023-04-08T16:56:04.101Z,15.30
2023-04-08T16:56:14.279Z,15.30
2023-04-08T16:56:24.564Z,15.28
2023-04-08T16:56:35.096Z,15.28
2023-04-08T16:56:44.774Z,15.25
2023-04-08T16:56:54.729Z,15.27
2023-04-08T16:57:04.917Z,15.25
2023-04-08T16:57:15.030Z,15.23
2023-04-08T16:57:26.233Z,15.23
2023-04-08T16:57:35.228Z,15.22
2023-04-08T16:57:45.725Z,15.22
2023-04-08T16:57:55.380Z,15.20
2023-04-08T16:58:05.571Z,15.19
2023-04-08T16:58:15.691Z,15.18
2023-04-08T16:58:37.052Z,15.18
2023-04-08T16:58:46.074Z,15.18
2023-04-08T16:58:57.022Z,15.18
2023-04-08T16:59:06.394Z,15.16
2023-04-08T16:59:16.507Z,15.16
2023-04-08T16:59:26.493Z,15.13
2023-04-08T16:59:47.054Z,15.12
2023-04-08T16:59:56.947Z,15.09
2023-04-08T17:00:07.121Z,15.09
2023-04-08T17:00:19.050Z,15.05
2023-04-08T17:00:28.318Z,15.04
2023-04-08T17:00:37.719Z,15.05
2023-04-08T17:00:47.662Z,15.05
2023-04-08T17:00:57.739Z,15.07
2023-04-08T17:01:08.471Z,15.07
2023-04-08T17:01:18.123Z,15.05
2023-04-08T17:01:38.250Z,15.09
2023-04-08T17:01:48.336Z,15.09
2023-04-08T17:01:58.444Z,15.07
2023-04-08T17:02:08.699Z,15.07
2023-04-08T17:02:18.925Z,15.07
2023-04-08T17:02:29.116Z,15.07
2023-04-08T17:02:40.189Z,15.07
2023-04-08T17:02:49.369Z,15.07
2023-04-08T17:02:59.426Z,15.07
2023-04-08T17:03:09.328Z,15.07
2023-04-08T17:03:19.378Z,15.09
2023-04-08T17:03:29.615Z,15.11
2023-04-08T17:03:50.134Z,15.09
2023-04-08T17:03:59.927Z,15.11
2023-04-08T17:04:11.115Z,15.09
2023-04-08T17:04:20.216Z,15.09
2023-04-08T17:04:30.393Z,15.09
2023-04-08T17:04:40.515Z,15.09
2023-04-08T17:04:50.780Z,15.09
2023-04-08T17:05:01.543Z,15.07
2023-04-08T17:05:20.964Z,15.09
2023-04-08T17:05:30.950Z,15.11
2023-04-08T17:05:42.270Z,15.11
2023-04-08T17:05:51.215Z,15.07
2023-04-08T17:06:01.383Z,15.07
2023-04-08T17:06:11.427Z,15.04
2023-04-08T17:06:22.842Z,15.05
2023-04-08T17:06:32.779Z,15.04
2023-04-08T17:06:52.029Z,15.03
2023-04-08T17:07:03.069Z,15.00
2023-04-08T17:07:14.159Z,15.01
2023-04-08T17:07:22.487Z,15.00
2023-04-08T17:07:32.666Z,15.00
2023-04-08T17:07:42.697Z,15.00
2023-04-08T17:07:52.874Z,14.97
2023-04-08T17:08:14.081Z,14.93
2023-04-08T17:08:23.179Z,14.93
2023-04-08T17:08:33.397Z,14.90
2023-04-08T17:08:43.404Z,14.86
2023-04-08T17:08:53.764Z,14.86
2023-04-08T17:09:03.719Z,14.85
2023-04-08T17:09:14.597Z,14.82
2023-04-08T17:09:23.902Z,14.80
2023-04-08T17:09:33.855Z,14.78
2023-04-08T17:09:44.326Z,14.78
2023-04-08T17:09:54.294Z,14.79
2023-04-08T17:10:05.414Z,14.79
2023-04-08T17:10:14.671Z,14.75
2023-04-08T17:10:24.750Z,14.78
2023-04-08T17:10:34.875Z,14.74
2023-04-08T17:10:44.917Z,14.74
2023-04-08T17:10:55.028Z,14.75
2023-04-08T17:11:15.431Z,14.74
2023-04-08T17:11:25.460Z,14.74
2023-04-08T17:11:36.619Z,14.75
2023-04-08T17:11:45.688Z,14.74
2023-04-08T17:11:55.958Z,14.75
2023-04-08T17:12:07.008Z,14.78
2023-04-08T17:12:16.240Z,14.79
2023-04-08T17:12:26.207Z,14.79
2023-04-08T17:12:45.468Z,14.82
2023-04-08T17:12:56.508Z,14.83
2023-04-08T17:13:06.581Z,14.83
2023-04-08T17:13:16.779Z,14.83
2023-04-08T17:13:27.057Z,14.83
2023-04-08T17:13:37.294Z,14.85
2023-04-08T17:13:47.032Z,14.85
2023-04-08T17:13:57.299Z,14.85
2023-04-08T17:14:07.401Z,14.85
2023-04-08T17:14:17.374Z,14.86
2023-04-08T17:14:27.689Z,14.86
2023-04-08T17:14:37.950Z,14.86
2023-04-08T17:14:49.293Z,14.86
2023-04-08T17:14:59.012Z,14.86
2023-04-08T17:15:08.101Z,14.87
2023-04-08T17:15:18.293Z,14.87
2023-04-08T17:15:29.250Z,14.87
2023-04-08T17:15:38.718Z,14.87
